Time;durP1;ratioP1;P1;durP2;ratioP2;P2;SDS_P1;SDS_P2;PMS_P1;PMS_P2;Temp;Humidity;BMP_temperature;BMP_pressure;BME280_temperature;BME280_humidity;BME280_pressure;Samples;Min_cycle;Max_cycle;Signal;HPM_P1;HPM_P2
2021/05/15 00:02:23;114413.00;0.38;198.44;0.00;0.00;0.62;;;;;14.90;1.00;;;;;;2268339;61;1707;-86
2021/05/15 00:04:49;0.00;0.00;0.62;0.00;0.00;0.62;;;;;14.60;1.00;;;;;;2268632;61;1046;-85
2021/05/15 00:07:16;63827.00;0.21;111.09;0.00;0.00;0.62;;;;;14.10;1.00;;;;;;2269099;61;1096;-85
2021/05/15 00:09:43;6305.00;0.02;11.55;0.00;0.00;0.62;;;;;14.20;1.00;;;;;;2269109;61;937;-86
2021/05/15 00:12:10;44123.00;0.15;77.02;0.00;0.00;0.62;;;;;14.30;1.00;;;;;;2269063;61;1459;-86
2021/05/15 00:14:37;20797.00;0.07;36.65;0.00;0.00;0.62;;;;;14.20;1.00;;;;;;2269051;61;1126;-86
2021/05/15 00:17:03;21812.00;0.07;38.41;0.00;0.00;0.62;;;;;14.20;1.00;;;;;;2269152;61;1073;-88
2021/05/15 00:19:30;0.00;0.00;0.62;0.00;0.00;0.62;;;;;14.60;1.00;;;;;;2269053;61;1916;-85
2021/05/15 00:21:56;28132.00;0.09;49.35;0.00;0.00;0.62;;;;;14.80;1.00;;;;;;2269059;61;1443;-86
2021/05/15 00:24:23;0.00;0.00;0.62;0.00;0.00;0.62;;;;;14.90;1.00;;;;;;2269060;61;1065;-85
2021/05/15 00:26:49;0.00;0.00;0.62;0.00;0.00;0.62;;;;;14.90;1.00;;;;;;2269055;61;1134;-86
2021/05/15 00:29:16;0.00;0.00;0.62;0.00;0.00;0.62;;;;;15.00;1.00;;;;;;2269017;61;1550;-86
2021/05/15 00:31:43;40468.00;0.13;70.70;0.00;0.00;0.62;;;;;15.20;1.00;;;;;;2268878;61;1309;-85
2021/05/15 00:34:09;59431.00;0.20;103.49;0.00;0.00;0.62;;;;;15.30;1.00;;;;;;2269011;61;1104;-85
2021/05/15 00:36:35;0.00;0.00;0.62;0.00;0.00;0.62;;;;;15.50;1.00;;;;;;2269007;61;1016;-84
2021/05/15 00:39:02;55318.00;0.18;96.38;0.00;0.00;0.62;;;;;15.90;1.00;;;;;;2269007;61;1920;-84
2021/05/15 00:41:28;0.00;0.00;0.62;0.00;0.00;0.62;;;;;15.90;1.00;;;;;;2261956;61;1464;-84
2021/05/15 00:44:10;0.00;0.00;0.62;0.00;0.00;0.62;;;;;15.80;1.00;;;;;;2269051;61;1041;-85
2021/05/15 00:46:38;0.00;0.00;0.62;0.00;0.00;0.62;;;;;15.70;1.00;;;;;;2268992;61;1149;-87
2021/05/15 00:49:05;0.00;0.00;0.62;0.00;0.00;0.62;;;;;15.70;1.00;;;;;;2261819;61;949;-84
2021/05/15 00:51:31;0.00;0.00;0.62;0.00;0.00;0.62;;;;;15.50;1.00;;;;;;2260423;61;1419;-85
2021/05/15 00:53:59;0.00;0.00;0.62;0.00;0.00;0.62;;;;;15.60;1.00;;;;;;2260507;61;1095;-86
2021/05/15 00:56:28;15301.00;0.05;27.13;0.00;0.00;0.62;;;;;15.70;1.00;;;;;;2260468;61;1134;-86
2021/05/15 00:58:55;0.00;0.00;0.62;0.00;0.00;0.62;;;;;16.00;1.00;;;;;;2253799;61;1928;-85
2021/05/15 01:01:22;0.00;0.00;0.62;0.00;0.00;0.62;;;;;16.40;1.00;;;;;;2260453;61;1293;-85
2021/05/15 01:03:50;0.00;0.00;0.62;0.00;0.00;0.62;;;;;16.50;1.00;;;;;;2260492;61;1091;-85
2021/05/15 01:06:16;0.00;0.00;0.62;0.00;0.00;0.62;;;;;16.60;1.00;;;;;;2260479;61;1077;-86
2021/05/15 01:08:45;11559.00;0.04;20.65;0.00;0.00;0.62;;;;;16.50;1.00;;;;;;2261571;61;1053;-86
2021/05/15 01:11:13;0.00;0.00;0.62;0.00;0.00;0.62;;;;;16.60;1.00;;;;;;2268864;61;1308;-86
2021/05/15 01:13:40;0.00;0.00;0.62;0.00;0.00;0.62;;;;;16.50;1.00;;;;;;2268923;61;1053;-86
2021/05/15 01:16:06;0.00;0.00;0.62;0.00;0.00;0.62;;;;;16.50;1.00;;;;;;2268545;61;1148;-86
2021/05/15 01:18:36;0.00;0.00;0.62;0.00;0.00;0.62;;;;;16.20;1.00;;;;;;2264995;61;2014;-86
2021/05/15 01:21:04;0.00;0.00;0.62;0.00;0.00;0.62;;;;;16.10;1.00;;;;;;2268958;61;1447;-86
2021/05/15 01:23:30;0.00;0.00;0.62;0.00;0.00;0.62;;;;;15.60;1.00;;;;;;2268866;61;1487;-85
2021/05/15 01:25:56;0.00;0.00;0.62;0.00;0.00;0.62;;;;;15.80;1.00;;;;;;2268905;61;1089;-84
2021/05/15 01:28:28;0.00;0.00;0.62;0.00;0.00;0.62;;;;;15.60;1.00;;;;;;2268891;61;1116;-86
2021/05/15 01:30:54;0.00;0.00;0.62;0.00;0.00;0.62;;;;;15.20;1.00;;;;;;2261782;61;1362;-85
2021/05/15 01:33:21;9025.00;0.03;16.26;0.00;0.00;0.62;;;;;15.20;1.00;;;;;;2258399;61;978;-84
2021/05/15 01:35:47;39807.00;0.13;69.55;0.00;0.00;0.62;;;;;15.20;1.00;;;;;;2261817;61;994;-85
2021/05/15 01:38:14;39526.00;0.13;69.07;0.00;0.00;0.62;;;;;14.90;1.00;;;;;;2268833;61;1046;-83
2021/05/15 01:40:41;19526.00;0.07;34.45;0.00;0.00;0.62;;;;;14.70;1.00;;;;;;2260170;61;1938;-84
2021/05/15 01:43:07;0.00;0.00;0.62;0.00;0.00;0.62;;;;;14.40;1.00;;;;;;2260287;61;1037;-84
2021/05/15 01:45:33;0.00;0.00;0.62;0.00;0.00;0.62;;;;;14.20;1.00;;;;;;2260272;61;1200;-84
2021/05/15 01:48:00;0.00;0.00;0.62;0.00;0.00;0.62;;;;;14.10;1.00;;;;;;2248299;61;1002;-84
2021/05/15 01:50:26;0.00;0.00;0.62;0.00;0.00;0.62;;;;;14.00;1.00;;;;;;2248341;61;1394;-84
2021/05/15 01:52:52;253751.00;0.85;438.40;79720.00;0.27;138.55;;;;;13.60;1.00;;;;;;2236414;62;1078;-84
2021/05/15 01:55:22;0.00;0.00;0.62;0.00;0.00;0.62;;;;;13.80;1.00;;;;;;2233209;62;994;-84
2021/05/15 01:57:49;0.00;0.00;0.62;0.00;0.00;0.62;;;;;13.90;1.00;;;;;;2237469;62;1052;-84
2021/05/15 02:00:17;109501.00;0.37;189.97;0.00;0.00;0.62;;;;;13.60;1.00;;;;;;2244231;61;1920;-85
2021/05/15 02:02:43;8801.00;0.03;15.87;0.00;0.00;0.62;;;;;13.80;1.00;;;;;;2241079;62;1097;-85
2021/05/15 02:05:11;0.00;0.00;0.62;0.00;0.00;0.62;;;;;13.90;1.00;;;;;;2245859;61;994;-85
2021/05/15 02:07:37;56635.00;0.19;98.66;0.00;0.00;0.62;;;;;14.00;1.00;;;;;;2256275;61;1092;-84
2021/05/15 02:10:04;53744.00;0.18;93.66;0.00;0.00;0.62;;;;;14.00;1.00;;;;;;2257978;61;1383;-85
2021/05/15 02:12:31;0.00;0.00;0.62;0.00;0.00;0.62;;;;;14.60;1.00;;;;;;2268760;61;1122;-87
2021/05/15 02:14:58;49029.00;0.16;85.51;0.00;0.00;0.62;;;;;15.00;1.00;;;;;;2258401;61;982;-85
2021/05/15 02:17:24;0.00;0.00;0.62;0.00;0.00;0.62;;;;;15.30;1.00;;;;;;2268783;61;927;-86
2021/05/15 02:19:50;0.00;0.00;0.62;0.00;0.00;0.62;;;;;15.70;1.00;;;;;;2268636;61;1911;-85
2021/05/15 02:22:17;0.00;0.00;0.62;0.00;0.00;0.62;;;;;15.90;1.00;;;;;;2268696;61;1075;-85
2021/05/15 02:24:43;0.00;0.00;0.62;0.00;0.00;0.62;;;;;15.70;1.00;;;;;;2268689;61;1087;-85
2021/05/15 02:27:10;0.00;0.00;0.62;0.00;0.00;0.62;;;;;15.20;1.00;;;;;;2268697;61;1171;-85
2021/05/15 02:29:37;0.00;0.00;0.62;0.00;0.00;0.62;;;;;15.00;1.00;;;;;;2268692;61;1115;-85
2021/05/15 02:32:03;18144.00;0.06;32.06;0.00;0.00;0.62;;;;;14.80;1.00;;;;;;2268639;61;1470;-85
2021/05/15 02:34:30;169271.00;0.56;293.01;0.00;0.00;0.62;;;;;14.70;1.00;;;;;;2268629;61;1104;-85
2021/05/15 02:36:56;126825.00;0.42;219.85;0.00;0.00;0.62;;;;;14.40;1.00;;;;;;2268601;61;1123;-85
2021/05/15 02:39:23;15325.00;0.05;27.17;0.00;0.00;0.62;;;;;14.40;1.00;;;;;;2268610;61;2010;-85
2021/05/15 02:41:49;16068.00;0.05;28.46;0.00;0.00;0.62;;;;;14.00;1.00;;;;;;2268560;61;1801;-85
2021/05/15 02:44:15;11269.00;0.04;20.15;0.00;0.00;0.62;;;;;14.10;1.00;;;;;;2268656;61;1127;-85
2021/05/15 02:46:43;0.00;0.00;0.62;0.00;0.00;0.62;;;;;14.20;1.00;;;;;;2268648;61;1049;-86
2021/05/15 02:49:09;0.00;0.00;0.62;0.00;0.00;0.62;;;;;14.40;1.00;;;;;;2268656;61;1008;-86
2021/05/15 02:51:35;0.00;0.00;0.62;0.00;0.00;0.62;;;;;14.90;1.00;;;;;;2268595;61;1404;-86
2021/05/15 02:54:02;0.00;0.00;0.62;0.00;0.00;0.62;;;;;15.40;1.00;;;;;;2268448;61;1805;-85
2021/05/15 02:56:28;0.00;0.00;0.62;0.00;0.00;0.62;;;;;15.80;1.00;;;;;;2268630;61;1112;-85
2021/05/15 02:58:55;0.00;0.00;0.62;0.00;0.00;0.62;;;;;15.90;1.00;;;;;;2268571;61;1997;-85
2021/05/15 03:01:22;0.00;0.00;0.62;0.00;0.00;0.62;;;;;16.10;1.00;;;;;;2268545;61;1391;-85
2021/05/15 03:03:49;27100.00;0.09;47.56;0.00;0.00;0.62;;;;;15.70;1.00;;;;;;2268613;61;1128;-86
2021/05/15 03:06:15;0.00;0.00;0.62;0.00;0.00;0.62;;;;;15.30;1.00;;;;;;2268585;61;1072;-84
2021/05/15 03:08:42;0.00;0.00;0.62;0.00;0.00;0.62;;;;;15.00;1.00;;;;;;2268594;61;1103;-86
2021/05/15 03:11:08;888.00;0.00;2.16;0.00;0.00;0.62;;;;;15.00;1.00;;;;;;2268528;61;1395;-85
2021/05/15 03:13:34;0.00;0.00;0.62;0.00;0.00;0.62;;;;;14.60;1.00;;;;;;2268576;61;1087;-85
2021/05/15 03:16:01;44856.00;0.15;78.29;0.00;0.00;0.62;;;;;14.30;1.00;;;;;;2268551;61;1115;-86
2021/05/15 03:18:27;29338.00;0.10;51.44;0.00;0.00;0.62;;;;;13.90;1.00;;;;;;2268535;61;1028;-86
2021/05/15 03:20:56;0.00;0.00;0.62;0.00;0.00;0.62;;;;;14.00;1.00;;;;;;2268432;61;2003;-85
2021/05/15 03:23:22;289964.00;0.97;500.67;90575.00;0.30;157.30;;;;;14.20;1.00;;;;;;2268515;61;1685;-86
2021/05/15 03:25:48;73202.00;0.24;127.29;0.00;0.00;0.62;;;;;14.30;1.00;;;;;;2268515;61;1575;-85
2021/05/15 03:28:15;25325.00;0.08;44.49;0.00;0.00;0.62;;;;;14.30;1.00;;;;;;2268502;61;1724;-85
2021/05/15 03:33:09;177398.00;0.59;307.01;0.00;0.00;0.62;;;;;14.10;1.00;;;;;;2273439;46;1368;-86
2021/05/15 03:35:36;134899.00;0.45;233.78;0.00;0.00;0.62;;;;;14.10;1.00;;;;;;2264362;61;1568;-87
2021/05/15 03:38:03;180437.00;0.60;312.24;0.00;0.00;0.62;;;;;14.20;1.00;;;;;;2264329;61;1180;-88
2021/05/15 03:40:30;138632.00;0.46;240.21;0.00;0.00;0.62;;;;;14.20;1.00;;;;;;2264799;61;1984;-87
2021/05/15 03:43:02;277317.00;0.92;478.92;0.00;0.00;0.62;;;;;14.10;1.00;;;;;;2265052;61;1302;-88
2021/05/15 03:45:29;113017.00;0.38;196.04;0.00;0.00;0.62;;;;;14.10;1.00;;;;;;2264999;61;982;-88
2021/05/15 03:47:55;162874.00;0.54;281.99;0.00;0.00;0.62;;;;;14.40;1.00;;;;;;2264362;61;1553;-87
2021/05/15 03:50:22;275230.00;0.92;475.34;0.00;0.00;0.62;;;;;14.80;1.00;;;;;;2256529;61;1017;-88
2021/05/15 03:55:51;184695.00;0.62;319.57;0.00;0.00;0.62;;;;;14.00;1.00;;;;;;2256372;61;1117;-88
2021/05/15 03:58:36;299909.00;1.00;517.76;0.00;0.00;0.62;;;;;13.30;1.00;;;;;;2256645;61;1045;-88
2021/05/15 04:04:06;247167.00;0.82;427.08;79569.00;0.27;138.29;;;;;13.40;1.00;;;;;;2252927;61;1628;-88
2021/05/15 04:06:33;408164.00;1.36;703.84;73687.00;0.25;128.13;;;;;13.90;1.00;;;;;;2256450;61;1056;-88
2021/05/15 04:08:59;347524.00;1.16;599.61;85195.00;0.28;148.01;;;;;14.40;1.00;;;;;;2263088;61;1011;-88
2021/05/15 04:11:34;462437.00;1.54;797.18;78233.00;0.26;135.98;;;;;13.50;1.00;;;;;;2265050;61;1360;-88
2021/05/15 04:14:08;568761.00;1.90;980.31;139933.00;0.47;242.46;;;;;13.80;1.00;;;;;;2265062;61;911;-88
2021/05/15 04:16:49;342630.00;1.14;591.19;81284.00;0.27;141.26;;;;;13.80;1.00;;;;;;2264313;61;1022;-88
2021/05/15 04:19:37;577407.00;1.92;995.22;0.00;0.00;0.62;;;;;13.80;1.00;;;;;;2263902;61;2031;-88
2021/05/15 04:22:06;703516.00;2.35;1213.34;0.00;0.00;0.62;;;;;14.00;1.00;;;;;;2264171;61;1294;-88
2021/05/15 04:24:41;473431.00;1.58;816.09;0.00;0.00;0.62;;;;;13.80;1.00;;;;;;2264935;61;1806;-88
2021/05/15 04:27:14;383875.00;1.28;662.09;0.00;0.00;0.62;;;;;13.40;1.00;;;;;;2264929;61;1144;-88
2021/05/15 04:29:42;215483.00;0.72;372.57;0.00;0.00;0.62;;;;;13.80;1.00;;;;;;2264381;61;1113;-88
2021/05/15 04:32:09;196606.00;0.66;340.08;0.00;0.00;0.62;;;;;14.40;1.00;;;;;;2264929;61;1416;-87
2021/05/15 04:34:35;268122.00;0.89;463.11;0.00;0.00;0.62;;;;;14.80;1.00;;;;;;2264869;61;1097;-88
2021/05/15 04:37:06;355269.00;1.18;612.92;0.00;0.00;0.62;;;;;15.40;1.00;;;;;;2265015;61;1125;-88
2021/05/15 04:39:34;126930.00;0.42;220.04;0.00;0.00;0.62;;;;;15.20;1.00;;;;;;2264562;61;2030;-88
2021/05/15 04:42:24;128471.00;0.43;222.69;0.00;0.00;0.62;;;;;15.80;1.00;;;;;;2265094;61;1404;-88
2021/05/15 04:44:53;272206.00;0.91;470.14;0.00;0.00;0.62;;;;;16.00;1.00;;;;;;2260581;61;1811;-88
2021/05/15 04:47:35;233043.00;0.78;402.78;0.00;0.00;0.62;;;;;15.90;1.00;;;;;;2265265;61;1094;-89
2021/05/15 04:50:16;173864.00;0.58;300.92;0.00;0.00;0.62;;;;;15.80;1.00;;;;;;2265035;61;1561;-88
2021/05/15 04:52:43;64888.00;0.22;112.93;0.00;0.00;0.62;;;;;16.00;1.00;;;;;;2263088;61;1362;-88
2021/05/15 04:55:12;158348.00;0.53;274.19;0.00;0.00;0.62;;;;;16.00;1.00;;;;;;2265153;61;1291;-88
2021/05/15 04:57:40;149257.00;0.50;258.53;25595.00;0.09;44.96;;;;;16.20;1.00;;;;;;2264853;61;1805;-88
2021/05/15 05:00:07;160192.00;0.53;277.37;0.00;0.00;0.62;;;;;16.20;1.00;;;;;;2264965;61;1931;-89
2021/05/15 05:02:34;434954.00;1.45;749.90;25571.00;0.09;44.92;;;;;16.10;1.00;;;;;;2264989;61;1729;-89
2021/05/15 05:05:02;170782.00;0.57;295.61;0.00;0.00;0.62;;;;;16.30;1.00;;;;;;2265014;61;1077;-89
2021/05/15 05:07:28;119708.00;0.40;207.58;0.00;0.00;0.62;;;;;16.60;1.00;;;;;;2264892;61;1662;-89
2021/05/15 05:09:57;156246.00;0.52;270.57;4410.00;0.01;8.26;;;;;16.50;1.00;;;;;;2265091;61;1128;-88
2021/05/15 05:12:24;45365.00;0.15;79.17;0.00;0.00;0.62;;;;;16.60;1.00;;;;;;2257274;61;1342;-87
2021/05/15 05:14:51;181658.00;0.61;314.34;0.00;0.00;0.62;;;;;16.50;1.00;;;;;;2263828;61;1217;-88
2021/05/15 05:17:17;218620.00;0.73;377.97;0.00;0.00;0.62;;;;;16.40;1.00;;;;;;2263599;61;1220;-88
2021/05/15 05:19:55;174285.00;0.58;301.65;0.00;0.00;0.62;;;;;16.00;1.00;;;;;;2257237;61;1992;-89
2021/05/15 05:22:21;261517.00;0.87;451.76;77617.00;0.26;134.92;;;;;15.80;1.00;;;;;;2257190;61;1440;-89
2021/05/15 05:24:50;231564.00;0.77;400.24;0.00;0.00;0.62;;;;;16.10;1.00;;;;;;2264549;61;1775;-88
2021/05/15 05:27:20;267949.00;0.89;462.82;83034.00;0.28;144.28;;;;;16.60;1.00;;;;;;2252032;61;1076;-89
2021/05/15 05:29:47;216432.00;0.72;374.20;0.00;0.00;0.62;;;;;16.90;1.00;;;;;;2248755;61;1066;-89
2021/05/15 05:32:14;7372.00;0.02;13.40;0.00;0.00;0.62;;;;;17.00;1.00;;;;;;2251836;61;1283;-89
2021/05/15 05:34:42;0.00;0.00;0.62;0.00;0.00;0.62;;;;;17.00;1.00;;;;;;2251926;61;1141;-88
2021/05/15 05:37:08;0.00;0.00;0.62;0.00;0.00;0.62;;;;;16.80;1.00;;;;;;2252082;61;1091;-89
2021/05/15 05:39:36;0.00;0.00;0.62;0.00;0.00;0.62;;;;;16.90;1.00;;;;;;2250200;61;2013;-88
2021/05/15 05:42:04;17769.00;0.06;31.41;0.00;0.00;0.62;;;;;17.50;1.00;;;;;;2252067;61;1309;-88
2021/05/15 05:44:30;142300.00;0.47;246.54;0.00;0.00;0.62;;;;;19.00;1.00;;;;;;2253913;61;1105;-90
2021/05/15 05:46:56;77459.00;0.26;134.65;0.00;0.00;0.62;;;;;20.20;1.00;;;;;;2264727;61;1641;-89
2021/05/15 05:49:35;74405.00;0.25;129.37;0.00;0.00;0.62;;;;;21.40;1.00;;;;;;2264311;61;1660;-90
2021/05/15 05:52:14;112789.00;0.38;195.64;0.00;0.00;0.62;;;;;21.90;1.00;;;;;;2264685;61;1357;-89
2021/05/15 05:54:54;178240.00;0.59;308.46;76849.00;0.26;133.59;;;;;22.10;1.00;;;;;;2263724;61;1563;-90
2021/05/15 05:57:21;62345.00;0.21;108.53;0.00;0.00;0.62;;;;;21.50;1.00;;;;;;2264373;61;1099;-88
2021/05/15 05:59:48;213561.00;0.71;369.26;0.00;0.00;0.62;;;;;21.70;1.00;;;;;;2264582;61;2006;-88
2021/05/15 06:02:16;223777.00;0.75;386.84;0.00;0.00;0.62;;;;;21.90;1.00;;;;;;2264324;61;1614;-89
2021/05/15 06:04:44;170191.00;0.57;294.60;0.00;0.00;0.62;;;;;23.10;1.00;;;;;;2264471;61;1140;-88
2021/05/15 06:07:12;9692.00;0.03;17.42;0.00;0.00;0.62;;;;;25.10;1.00;;;;;;2264232;61;1081;-88
2021/05/15 06:09:38;7526.00;0.03;13.66;0.00;0.00;0.62;;;;;26.40;1.00;;;;;;2264434;61;1032;-89
2021/05/15 06:12:05;0.00;0.00;0.62;0.00;0.00;0.62;;;;;25.90;1.00;;;;;;2264366;61;1289;-89
2021/05/15 06:14:33;0.00;0.00;0.62;0.00;0.00;0.62;;;;;24.70;1.00;;;;;;2264551;61;1163;-89
2021/05/15 06:16:59;5561.00;0.02;10.26;0.00;0.00;0.62;;;;;23.50;1.00;;;;;;2264512;61;1167;-89
2021/05/15 06:19:25;22349.00;0.07;39.34;0.00;0.00;0.62;;;;;22.30;1.00;;;;;;2264077;61;1998;-88
2021/05/15 06:21:53;30987.00;0.10;54.29;0.00;0.00;0.62;;;;;22.30;1.00;;;;;;2264330;61;1395;-89
2021/05/15 06:24:19;24946.00;0.08;43.83;0.00;0.00;0.62;;;;;22.30;1.00;;;;;;2264680;61;1153;-88
2021/05/15 06:26:46;32817.00;0.11;57.46;0.00;0.00;0.62;;;;;21.60;1.00;;;;;;2264570;61;1061;-89
2021/05/15 06:29:14;353864.00;1.18;610.50;30928.00;0.10;54.19;;;;;22.00;1.00;;;;;;2264488;61;910;-89
2021/05/15 06:31:40;248900.00;0.83;430.06;0.00;0.00;0.62;;;;;23.50;1.00;;;;;;2264064;61;1531;-88
2021/05/15 06:34:07;21394.00;0.07;37.68;0.00;0.00;0.62;;;;;24.70;1.00;;;;;;2263998;61;1181;-89
2021/05/15 06:36:33;15797.00;0.05;27.99;0.00;0.00;0.62;;;;;24.80;1.00;;;;;;2264067;61;1224;-88
2021/05/15 06:39:00;386395.00;1.29;666.42;98456.00;0.33;170.91;;;;;24.50;1.00;;;;;;2264613;61;2009;-89
2021/05/15 06:41:27;19491.00;0.06;34.39;0.00;0.00;0.62;;;;;22.70;1.00;;;;;;2263349;61;1372;-89
2021/05/15 06:43:53;39712.00;0.13;69.39;0.00;0.00;0.62;;;;;22.40;1.00;;;;;;2264693;61;1095;-88
2021/05/15 06:46:19;11689.00;0.04;20.88;0.00;0.00;0.62;;;;;22.10;1.00;;;;;;2264446;61;1096;-89
2021/05/15 06:48:46;50796.00;0.17;88.56;0.00;0.00;0.62;;;;;21.90;1.00;;;;;;2264093;61;1156;-89
2021/05/15 06:51:12;0.00;0.00;0.62;0.00;0.00;0.62;;;;;21.30;1.00;;;;;;2264148;61;1316;-89
2021/05/15 06:53:39;46979.00;0.16;81.96;0.00;0.00;0.62;;;;;21.50;1.00;;;;;;2264131;61;1089;-89
2021/05/15 06:56:06;63557.00;0.21;110.63;0.00;0.00;0.62;;;;;20.90;1.00;;;;;;2263765;61;1137;-89
2021/05/15 06:58:32;61599.00;0.21;107.24;0.00;0.00;0.62;;;;;21.20;1.00;;;;;;2264521;61;1097;-88
2021/05/15 07:00:59;8823.00;0.03;15.91;0.00;0.00;0.62;;;;;21.50;1.00;;;;;;2264426;61;1936;-89
2021/05/15 07:03:25;32780.00;0.11;57.39;0.00;0.00;0.62;;;;;21.90;1.00;;;;;;2264223;61;1100;-88
2021/05/15 07:05:52;59320.00;0.20;103.30;0.00;0.00;0.62;;;;;21.30;1.00;;;;;;2263917;61;1596;-89
2021/05/15 07:08:18;44902.00;0.15;78.37;0.00;0.00;0.62;;;;;20.60;1.00;;;;;;2264021;61;1148;-88
2021/05/15 07:10:44;54392.00;0.18;94.78;0.00;0.00;0.62;;;;;20.00;1.00;;;;;;2263684;61;1288;-89
2021/05/15 07:13:13;52590.00;0.18;91.67;0.00;0.00;0.62;;;;;20.40;1.00;;;;;;2264171;61;1073;-88
2021/05/15 07:15:39;97169.00;0.32;168.68;0.00;0.00;0.62;;;;;20.50;1.00;;;;;;2264277;61;1041;-89
2021/05/15 07:18:06;74657.00;0.25;129.81;0.00;0.00;0.62;;;;;21.00;1.00;;;;;;2264332;61;935;-89
2021/05/15 07:20:32;34317.00;0.11;60.05;0.00;0.00;0.62;;;;;21.70;1.00;;;;;;2264340;61;2002;-89
2021/05/15 07:22:59;76849.00;0.26;133.59;0.00;0.00;0.62;;;;;22.00;1.00;;;;;;2263972;61;1562;-90
2021/05/15 07:25:25;159108.00;0.53;275.50;0.00;0.00;0.62;;;;;21.60;1.00;;;;;;2263966;61;1505;-89
2021/05/15 07:27:52;215863.00;0.72;373.22;0.00;0.00;0.62;;;;;21.10;1.00;;;;;;2264145;61;1448;-88
2021/05/15 07:30:20;56742.00;0.19;98.84;0.00;0.00;0.62;;;;;20.80;1.00;;;;;;2264280;61;1136;-88
2021/05/15 07:32:48;90600.00;0.30;157.34;0.00;0.00;0.62;;;;;20.00;1.00;;;;;;2258124;61;1329;-88
2021/05/15 07:35:15;35155.00;0.12;61.50;0.00;0.00;0.62;;;;;19.90;1.00;;;;;;2255880;61;1056;-87
2021/05/15 07:37:41;63963.00;0.21;111.33;0.00;0.00;0.62;;;;;19.90;1.00;;;;;;2259568;61;1067;-89
2021/05/15 07:40:08;332409.00;1.11;573.63;114754.00;0.38;199.03;;;;;19.90;1.00;;;;;;2257041;61;1985;-88
2021/05/15 07:42:35;209842.00;0.70;362.86;2681.00;0.01;5.27;;;;;19.90;1.00;;;;;;2250250;61;1375;-89
2021/05/15 07:45:02;309377.00;1.03;534.04;80273.00;0.27;139.51;;;;;19.60;1.00;;;;;;2250961;61;1165;-88
2021/05/15 07:47:35;79527.00;0.27;138.22;0.00;0.00;0.62;;;;;18.70;1.00;;;;;;2249714;61;1196;-88
2021/05/15 07:50:02;60854.00;0.20;105.95;0.00;0.00;0.62;;;;;18.00;1.00;;;;;;2249190;61;1126;-87
2021/05/15 07:52:29;89008.00;0.30;154.59;0.00;0.00;0.62;;;;;18.30;1.00;;;;;;2251311;61;1442;-87
2021/05/15 07:54:59;166015.00;0.55;287.40;0.00;0.00;0.62;;;;;19.30;1.00;;;;;;2250947;61;1049;-88
2021/05/15 07:57:57;148110.00;0.49;256.55;0.00;0.00;0.62;;;;;20.20;1.00;;;;;;2251535;61;1755;-89
2021/05/15 08:00:27;827815.00;2.76;1429.68;76250.00;0.25;132.56;;;;;20.70;1.00;;;;;;2249277;61;1928;-89
2021/05/15 08:02:54;734871.00;2.45;1267.76;83230.00;0.28;144.62;;;;;21.10;1.00;;;;;;2264266;61;1602;-89
2021/05/15 08:05:20;720465.00;2.40;1242.75;91878.00;0.31;159.55;;;;;20.80;1.00;;;;;;2264240;61;1874;-87
2021/05/15 08:13:48;24758.00;0.08;43.51;0.00;0.00;0.62;;;;;22.30;1.00;;;;;;2263560;61;898;-89
2021/05/15 08:16:17;188765.00;0.63;326.58;69178.00;0.23;120.34;;;;;22.50;1.00;;;;;;2263171;61;1186;-89
2021/05/15 08:18:45;170009.00;0.57;294.28;0.00;0.00;0.62;;;;;22.50;1.00;;;;;;2263775;61;1149;-89
2021/05/15 08:21:12;54610.00;0.18;95.16;0.00;0.00;0.62;;;;;22.40;1.00;;;;;;2263289;61;2030;-89
2021/05/15 08:23:40;25319.00;0.08;44.48;0.00;0.00;0.62;;;;;22.00;1.00;;;;;;2262108;61;1137;-89
2021/05/15 08:26:07;33371.00;0.11;58.42;0.00;0.00;0.62;;;;;21.70;1.00;;;;;;2262919;61;1242;-88
2021/05/15 08:28:34;45302.00;0.15;79.06;0.00;0.00;0.62;;;;;21.50;1.00;;;;;;2264221;61;1124;-87
2021/05/15 08:31:01;47581.00;0.16;83.00;0.00;0.00;0.62;;;;;21.20;1.00;;;;;;2262408;61;1338;-87
2021/05/15 08:33:28;80903.00;0.27;140.60;0.00;0.00;0.62;;;;;21.20;1.00;;;;;;2263514;61;1592;-87
2021/05/15 08:35:55;24396.00;0.08;42.88;0.00;0.00;0.62;;;;;20.60;1.00;;;;;;2263771;61;1085;-87
2021/05/15 08:38:21;46545.00;0.16;81.21;0.00;0.00;0.62;;;;;20.60;1.00;;;;;;2263851;61;1160;-88
2021/05/15 08:40:48;43808.00;0.15;76.48;0.00;0.00;0.62;;;;;20.60;1.00;;;;;;2263150;61;1939;-88
2021/05/15 08:43:15;113055.00;0.38;196.10;0.00;0.00;0.62;;;;;19.80;1.00;;;;;;2256575;61;1161;-88
2021/05/15 08:45:43;38588.00;0.13;67.45;0.00;0.00;0.62;;;;;19.70;1.00;;;;;;2262909;61;1114;-88
2021/05/15 08:48:12;152284.00;0.51;263.74;16523.00;0.06;29.25;;;;;20.10;1.00;;;;;;2262574;61;1141;-88
2021/05/15 08:50:39;24099.00;0.08;42.37;0.00;0.00;0.62;;;;;19.80;1.00;;;;;;2263869;61;1581;-88
2021/05/15 08:53:06;64872.00;0.22;112.90;0.00;0.00;0.62;;;;;19.40;1.00;;;;;;2264571;61;1152;-88
2021/05/15 08:55:35;77851.00;0.26;135.33;0.00;0.00;0.62;;;;;19.70;1.00;;;;;;2263780;61;1189;-88
2021/05/15 08:58:03;119660.00;0.40;207.50;0.00;0.00;0.62;;;;;19.80;1.00;;;;;;2256701;61;1073;-88
2021/05/15 09:00:32;54927.00;0.18;95.71;0.00;0.00;0.62;;;;;20.40;1.00;;;;;;2262840;61;2018;-87
2021/05/15 09:05:50;95149.00;0.32;165.20;0.00;0.00;0.62;;;;;21.30;1.00;;;;;;2247129;62;1185;-89
2021/05/15 09:08:19;30301.00;0.10;53.10;0.00;0.00;0.62;;;;;21.60;1.00;;;;;;2246875;62;1157;-88
2021/05/15 09:10:48;54161.00;0.18;94.38;0.00;0.00;0.62;;;;;21.40;1.00;;;;;;2247091;62;1307;-89
2021/05/15 09:13:36;76609.00;0.26;133.18;0.00;0.00;0.62;;;;;21.40;1.00;;;;;;2246598;62;1129;-88
2021/05/15 09:16:05;189221.00;0.63;327.37;0.00;0.00;0.62;;;;;21.80;1.00;;;;;;2243364;62;1151;-87
2021/05/15 09:18:33;168889.00;0.56;292.35;71782.00;0.24;124.84;;;;;22.00;1.00;;;;;;2242901;62;1157;-88
2021/05/15 09:21:02;220810.00;0.74;381.74;0.00;0.00;0.62;;;;;21.30;1.00;;;;;;2247461;62;2001;-88
2021/05/15 09:23:31;87279.00;0.29;151.61;0.00;0.00;0.62;;;;;21.20;1.00;;;;;;2246175;62;1568;-88
2021/05/15 09:26:02;24279.00;0.08;42.68;0.00;0.00;0.62;;;;;21.20;1.00;;;;;;2245031;62;1121;-88
2021/05/15 09:28:35;57857.00;0.19;100.77;0.00;0.00;0.62;;;;;21.50;1.00;;;;;;2247053;62;1211;-88
2021/05/15 09:31:26;324535.00;1.08;560.09;82299.00;0.27;143.01;;;;;21.80;1.00;;;;;;2247162;61;1675;-88
2021/05/15 09:33:55;377770.00;1.26;651.59;89648.00;0.30;155.70;;;;;21.80;1.00;;;;;;2245764;61;1764;-89
2021/05/15 09:36:24;488789.00;1.63;842.52;84428.00;0.28;146.69;;;;;22.00;1.00;;;;;;2248031;62;1517;-88
2021/05/15 09:39:03;260304.00;0.87;449.67;0.00;0.00;0.62;;;;;21.50;1.00;;;;;;2248056;61;995;-88
2021/05/15 09:41:36;131288.00;0.44;227.55;0.00;0.00;0.62;;;;;20.80;1.00;;;;;;2247944;61;2023;-89
2021/05/15 09:44:04;234112.00;0.78;404.62;0.00;0.00;0.62;;;;;20.70;1.00;;;;;;2248343;61;988;-90
2021/05/15 09:46:37;500303.00;1.67;862.35;0.00;0.00;0.62;;;;;20.50;1.00;;;;;;2248304;61;1002;-88
2021/05/15 09:49:06;303782.00;1.01;524.42;0.00;0.00;0.62;;;;;20.60;1.00;;;;;;2255026;61;1148;-89
2021/05/15 09:51:34;348489.00;1.16;601.26;0.00;0.00;0.62;;;;;21.30;1.00;;;;;;2264545;61;1393;-89
2021/05/15 09:54:18;311704.00;1.04;538.04;0.00;0.00;0.62;;;;;21.80;1.00;;;;;;2264474;61;937;-89
2021/05/15 09:56:56;34176.00;0.11;59.81;0.00;0.00;0.62;;;;;22.30;1.00;;;;;;2263438;61;1170;-89
2021/05/15 09:59:27;9266.00;0.03;16.68;0.00;0.00;0.62;;;;;22.10;1.00;;;;;;2264615;61;1974;-88
2021/05/15 10:01:59;52640.00;0.18;91.75;0.00;0.00;0.62;;;;;21.60;1.00;;;;;;2264537;61;1412;-89
2021/05/15 10:04:29;168253.00;0.56;291.26;23366.00;0.08;41.10;;;;;21.60;1.00;;;;;;2263885;61;1712;-89
2021/05/15 10:06:56;209886.00;0.70;362.94;0.00;0.00;0.62;;;;;22.00;1.00;;;;;;2264527;61;1745;-89
2021/05/15 10:09:34;43006.00;0.14;75.09;0.00;0.00;0.62;;;;;22.10;1.00;;;;;;2264512;61;1289;-89
2021/05/15 10:12:20;136572.00;0.46;236.66;0.00;0.00;0.62;;;;;22.00;1.00;;;;;;2264489;61;1349;-89
2021/05/15 10:15:35;148605.00;0.50;257.40;0.00;0.00;0.62;;;;;21.90;1.00;;;;;;2264360;61;1135;-88
2021/05/15 10:18:04;419713.00;1.40;723.70;125406.00;0.42;217.41;;;;;22.40;1.00;;;;;;2247368;61;1224;-89
2021/05/15 10:20:30;231324.00;0.77;399.83;85059.00;0.28;147.78;;;;;23.00;1.00;;;;;;2247954;61;1985;-88
2021/05/15 10:22:57;238696.00;0.80;412.51;75685.00;0.25;131.58;;;;;23.40;1.00;;;;;;2248116;61;1248;-89
2021/05/15 10:25:27;285969.00;0.95;493.80;79640.00;0.27;138.42;;;;;23.80;1.00;;;;;;2248059;61;2018;-89
2021/05/15 10:28:21;282543.00;0.94;487.91;77836.00;0.26;135.30;;;;;23.80;1.00;;;;;;2248045;61;1223;-89
2021/05/15 10:30:48;603793.00;2.01;1040.77;179425.00;0.60;310.50;;;;;23.50;1.00;;;;;;2247846;61;1622;-89
2021/05/15 10:33:15;421794.00;1.41;727.28;85155.00;0.28;147.94;;;;;23.10;1.00;;;;;;2247980;61;1568;-88
2021/05/15 10:36:03;493007.00;1.64;849.78;75646.00;0.25;131.52;;;;;22.70;1.00;;;;;;2247983;61;1720;-89